sensor_id;sensor_type;location;lat;lon;timestamp;pressure;altitude;pressure_sealevel;temperature;humidity
21240;BME280;10778;48.962;9.018;2023-04-21T00:02:09;98779.78;;;1.83;100.00
21240;BME280;10778;48.962;9.018;2023-04-21T00:04:35;98775.53;;;1.82;100.00
21240;BME280;10778;48.962;9.018;2023-04-21T00:07:01;98779.16;;;1.80;100.00
21240;BME280;10778;48.962;9.018;2023-04-21T00:09:29;98781.09;;;1.76;100.00
21240;BME280;10778;48.962;9.018;2023-04-21T00:11:55;98769.97;;;1.74;100.00
21240;BME280;10778;48.962;9.018;2023-04-21T00:14:21;98768.94;;;1.77;100.00
21240;BME280;10778;48.962;9.018;2023-04-21T00:16:47;98767.47;;;1.73;100.00
21240;BME280;10778;48.962;9.018;2023-04-21T00:19:18;98764.31;;;1.67;100.00
21240;BME280;10778;48.962;9.018;2023-04-21T00:21:44;98765.59;;;1.75;100.00
21240;BME280;10778;48.962;9.018;2023-04-21T00:24:10;98763.94;;;1.74;100.00
21240;BME280;10778;48.962;9.018;2023-04-21T00:26:37;98757.00;;;1.74;100.00
21240;BME280;10778;48.962;9.018;2023-04-21T00:29:03;98764.03;;;1.72;100.00
21240;BME280;10778;48.962;9.018;2023-04-21T00:31:30;98769.38;;;1.69;100.00
21240;BME280;10778;48.962;9.018;2023-04-21T00:33:57;98767.47;;;1.73;100.00
21240;BME280;10778;48.962;9.018;2023-04-21T00:36:23;98765.53;;;1.76;100.00
21240;BME280;10778;48.962;9.018;2023-04-21T00:38:49;98759.75;;;1.71;100.00
21240;BME280;10778;48.962;9.018;2023-04-21T00:41:15;98762.72;;;1.65;100.00
21240;BME280;10778;48.962;9.018;2023-04-21T00:44:04;98762.41;;;1.55;100.00
21240;BME280;10778;48.962;9.018;2023-04-21T00:46:32;98756.88;;;1.61;100.00
21240;BME280;10778;48.962;9.018;2023-04-21T00:49:00;98759.75;;;1.56;100.00
21240;BME280;10778;48.962;9.018;2023-04-21T00:51:28;98748.34;;;1.59;100.00
21240;BME280;10778;48.962;9.018;2023-04-21T00:53:56;98753.94;;;1.67;100.00
21240;BME280;10778;48.962;9.018;2023-04-21T00:56:23;98752.09;;;1.69;100.00
21240;BME280;10778;48.962;9.018;2023-04-21T00:58:51;98749.88;;;1.63;100.00
21240;BME280;10778;48.962;9.018;2023-04-21T01:01:20;98741.59;;;1.56;100.00
21240;BME280;10778;48.962;9.018;2023-04-21T01:03:46;98740.69;;;1.58;100.00
21240;BME280;10778;48.962;9.018;2023-04-21T01:06:12;98742.53;;;1.55;100.00
21240;BME280;10778;48.962;9.018;2023-04-21T01:08:39;98747.16;;;1.65;100.00
21240;BME280;10778;48.962;9.018;2023-04-21T01:11:09;98747.09;;;1.66;100.00
21240;BME280;10778;48.962;9.018;2023-04-21T01:13:35;98747.91;;;1.67;100.00
21240;BME280;10778;48.962;9.018;2023-04-21T01:16:02;98751.91;;;1.73;100.00
21240;BME280;10778;48.962;9.018;2023-04-21T01:18:28;98746.53;;;1.76;100.00
21240;BME280;10778;48.962;9.018;2023-04-21T01:20:54;98751.91;;;1.73;100.00
21240;BME280;10778;48.962;9.018;2023-04-21T01:23:20;98747.28;;;1.63;100.00
21240;BME280;10778;48.962;9.018;2023-04-21T01:25:46;98739.28;;;1.52;100.00
21240;BME280;10778;48.962;9.018;2023-04-21T01:28:12;98746.66;;;1.44;100.00
21240;BME280;10778;48.962;9.018;2023-04-21T01:30:39;98751.00;;;1.43;100.00
21240;BME280;10778;48.962;9.018;2023-04-21T01:33:05;98749.78;;;1.34;100.00
21240;BME280;10778;48.962;9.018;2023-04-21T01:35:31;98748.00;;;1.35;100.00
21240;BME280;10778;48.962;9.018;2023-04-21T01:37:57;98747.38;;;1.31;100.00
21240;BME280;10778;48.962;9.018;2023-04-21T01:40:23;98740.28;;;1.19;100.00
21240;BME280;10778;48.962;9.018;2023-04-21T01:42:49;98737.69;;;1.19;100.00
21240;BME280;10778;48.962;9.018;2023-04-21T01:45:15;98734.44;;;1.15;100.00
21240;BME280;10778;48.962;9.018;2023-04-21T01:47:41;98739.81;;;1.12;100.00
21240;BME280;10778;48.962;9.018;2023-04-21T01:50:08;98740.28;;;1.19;100.00
21240;BME280;10778;48.962;9.018;2023-04-21T01:52:34;98746.22;;;1.21;100.00
21240;BME280;10778;48.962;9.018;2023-04-21T01:55:01;98740.66;;;1.27;100.00
21240;BME280;10778;48.962;9.018;2023-04-21T01:57:27;98747.63;;;1.26;100.00
21240;BME280;10778;48.962;9.018;2023-04-21T01:59:53;98747.22;;;1.18;100.00
21240;BME280;10778;48.962;9.018;2023-04-21T02:02:19;98751.66;;;1.16;100.00
21240;BME280;10778;48.962;9.018;2023-04-21T02:04:45;98747.75;;;1.09;100.00
21240;BME280;10778;48.962;9.018;2023-04-21T02:07:11;98747.25;;;1.02;100.00
21240;BME280;10778;48.962;9.018;2023-04-21T02:09:39;98753.13;;;0.90;100.00
21240;BME280;10778;48.962;9.018;2023-04-21T02:12:05;98760.13;;;0.88;100.00
21240;BME280;10778;48.962;9.018;2023-04-21T02:14:32;98764.16;;;0.93;100.00
21240;BME280;10778;48.962;9.018;2023-04-21T02:16:58;98761.13;;;0.85;100.00
21240;BME280;10778;48.962;9.018;2023-04-21T02:19:24;98753.81;;;0.77;100.00
21240;BME280;10778;48.962;9.018;2023-04-21T02:21:50;98754.81;;;0.75;100.00
21240;BME280;10778;48.962;9.018;2023-04-21T02:24:16;98754.88;;;0.73;100.00
21240;BME280;10778;48.962;9.018;2023-04-21T02:26:44;98759.50;;;0.68;100.00
21240;BME280;10778;48.962;9.018;2023-04-21T02:29:10;98754.38;;;0.66;100.00
21240;BME280;10778;48.962;9.018;2023-04-21T02:31:37;98752.72;;;0.65;100.00
21240;BME280;10778;48.962;9.018;2023-04-21T02:34:03;98748.88;;;0.73;100.00
21240;BME280;10778;48.962;9.018;2023-04-21T02:36:30;98745.94;;;0.79;100.00
21240;BME280;10778;48.962;9.018;2023-04-21T02:38:57;98748.28;;;0.83;100.00
21240;BME280;10778;48.962;9.018;2023-04-21T02:41:23;98746.38;;;0.87;100.00
21240;BME280;10778;48.962;9.018;2023-04-21T02:43:49;98738.59;;;0.87;100.00
21240;BME280;10778;48.962;9.018;2023-04-21T02:46:15;98732.00;;;0.81;100.00
21240;BME280;10778;48.962;9.018;2023-04-21T02:48:41;98733.69;;;0.82;100.00
21240;BME280;10778;48.962;9.018;2023-04-21T02:51:11;98732.75;;;0.83;100.00
21240;BME280;10778;48.962;9.018;2023-04-21T02:53:39;98733.69;;;0.82;100.00
21240;BME280;10778;48.962;9.018;2023-04-21T02:56:06;98746.38;;;0.87;100.00
21240;BME280;10778;48.962;9.018;2023-04-21T02:58:34;98758.91;;;0.95;100.00
21240;BME280;10778;48.962;9.018;2023-04-21T03:01:01;98749.69;;;1.05;100.00
21240;BME280;10778;48.962;9.018;2023-04-21T03:03:29;98750.41;;;1.07;100.00
21240;BME280;10778;48.962;9.018;2023-04-21T03:06:00;98748.19;;;1.01;100.00
21240;BME280;10778;48.962;9.018;2023-04-21T03:08:27;98761.50;;;0.95;100.00
21240;BME280;10778;48.962;9.018;2023-04-21T03:10:53;98747.44;;;0.99;100.00
21240;BME280;10778;48.962;9.018;2023-04-21T03:13:22;98750.59;;;1.04;100.00
21240;BME280;10778;48.962;9.018;2023-04-21T03:15:50;98745.91;;;1.11;100.00
21240;BME280;10778;48.962;9.018;2023-04-21T03:18:16;98754.25;;;1.16;100.00
21240;BME280;10778;48.962;9.018;2023-04-21T03:20:43;98752.75;;;1.12;100.00
21240;BME280;10778;48.962;9.018;2023-04-21T03:23:09;98741.56;;;1.11;100.00
21240;BME280;10778;48.962;9.018;2023-04-21T03:25:37;98732.78;;;1.14;100.00
21240;BME280;10778;48.962;9.018;2023-04-21T03:28:03;98734.22;;;1.04;100.00
21240;BME280;10778;48.962;9.018;2023-04-21T03:30:29;98736.81;;;1.04;100.00
21240;BME280;10778;48.962;9.018;2023-04-21T03:32:55;98737.81;;;1.01;100.00
21240;BME280;10778;48.962;9.018;2023-04-21T03:35:23;98725.53;;;1.05;100.00
21240;BME280;10778;48.962;9.018;2023-04-21T03:37:50;98730.78;;;1.03;100.00
21240;BME280;10778;48.962;9.018;2023-04-21T03:40:16;98727.28;;;1.04;100.00
21240;BME280;10778;48.962;9.018;2023-04-21T03:42:42;98726.09;;;1.10;100.00
21240;BME280;10778;48.962;9.018;2023-04-21T03:45:09;98724.19;;;1.13;100.00
21240;BME280;10778;48.962;9.018;2023-04-21T03:47:35;98727.34;;;1.03;100.00
21240;BME280;10778;48.962;9.018;2023-04-21T03:50:05;98735.31;;;0.99;100.00
21240;BME280;10778;48.962;9.018;2023-04-21T03:52:32;98736.81;;;1.04;100.00
21240;BME280;10778;48.962;9.018;2023-04-21T03:54:58;98734.56;;;0.97;100.00
21240;BME280;10778;48.962;9.018;2023-04-21T03:57:24;98733.88;;;0.94;100.00
21240;BME280;10778;48.962;9.018;2023-04-21T03:59:50;98732.50;;;0.88;100.00
21240;BME280;10778;48.962;9.018;2023-04-21T04:02:16;98734.16;;;0.89;100.00
21240;BME280;10778;48.962;9.018;2023-04-21T04:04:42;98738.19;;;0.95;100.00
21240;BME280;10778;48.962;9.018;2023-04-21T04:07:08;98723.94;;;1.02;100.00
21240;BME280;10778;48.962;9.018;2023-04-21T04:09:34;98728.56;;;0.97;100.00
21240;BME280;10778;48.962;9.018;2023-04-21T04:12:00;98748.25;;;0.99;100.00
21240;BME280;10778;48.962;9.018;2023-04-21T04:14:29;98738.50;;;1.05;100.00
21240;BME280;10778;48.962;9.018;2023-04-21T04:16:55;98727.03;;;1.09;100.00
21240;BME280;10778;48.962;9.018;2023-04-21T04:19:21;98721.34;;;1.02;100.00
21240;BME280;10778;48.962;9.018;2023-04-21T04:21:47;98725.22;;;0.95;100.00
21240;BME280;10778;48.962;9.018;2023-04-21T04:24:13;98728.88;;;0.91;100.00
21240;BME280;10778;48.962;9.018;2023-04-21T04:26:40;98744.34;;;0.92;100.00
21240;BME280;10778;48.962;9.018;2023-04-21T04:29:06;98735.06;;;1.04;100.00
21240;BME280;10778;48.962;9.018;2023-04-21T04:31:35;98731.72;;;1.02;100.00
21240;BME280;10778;48.962;9.018;2023-04-21T04:34:01;98733.47;;;1.02;100.00
21240;BME280;10778;48.962;9.018;2023-04-21T04:36:27;98742.34;;;0.97;100.00
21240;BME280;10778;48.962;9.018;2023-04-21T04:38:53;98748.97;;;0.87;100.00
21240;BME280;10778;48.962;9.018;2023-04-21T04:41:19;98746.09;;;0.92;100.00
21240;BME280;10778;48.962;9.018;2023-04-21T04:43:45;98748.06;;;1.03;100.00
21240;BME280;10778;48.962;9.018;2023-04-21T04:46:12;98744.25;;;1.10;100.00
21240;BME280;10778;48.962;9.018;2023-04-21T04:48:38;98751.34;;;1.06;100.00
21240;BME280;10778;48.962;9.018;2023-04-21T04:51:04;98746.84;;;1.10;100.00
21240;BME280;10778;48.962;9.018;2023-04-21T04:53:31;98748.06;;;1.03;100.00
21240;BME280;10778;48.962;9.018;2023-04-21T04:55:57;98745.84;;;1.12;100.00
21240;BME280;10778;48.962;9.018;2023-04-21T04:58:24;98747.81;;;1.23;100.00
21240;BME280;10778;48.962;9.018;2023-04-21T05:00:50;98746.34;;;1.34;100.00
21240;BME280;10778;48.962;9.018;2023-04-21T05:03:16;98766.16;;;1.35;100.00
21240;BME280;10778;48.962;9.018;2023-04-21T05:05:42;98768.00;;;1.33;100.00
21240;BME280;10778;48.962;9.018;2023-04-21T05:08:10;98771.44;;;1.33;100.00
21240;BME280;10778;48.962;9.018;2023-04-21T05:10:36;98771.44;;;1.33;100.00
21240;BME280;10778;48.962;9.018;2023-04-21T05:13:02;98763.91;;;1.28;100.00
21240;BME280;10778;48.962;9.018;2023-04-21T05:15:28;98765.22;;;1.36;100.00
21240;BME280;10778;48.962;9.018;2023-04-21T05:17:54;98773.69;;;1.39;100.00
21240;BME280;10778;48.962;9.018;2023-04-21T05:20:20;98775.59;;;1.36;100.00
21240;BME280;10778;48.962;9.018;2023-04-21T05:22:46;98777.13;;;1.40;100.00
21240;BME280;10778;48.962;9.018;2023-04-21T05:25:12;98776.81;;;1.45;100.00
21240;BME280;10778;48.962;9.018;2023-04-21T05:27:41;98782.59;;;1.50;100.00
21240;BME280;10778;48.962;9.018;2023-04-21T05:30:08;98784.94;;;1.54;100.00
21240;BME280;10778;48.962;9.018;2023-04-21T05:32:34;98780.06;;;1.64;100.00
21240;BME280;10778;48.962;9.018;2023-04-21T05:35:01;98783.75;;;1.75;100.00
21240;BME280;10778;48.962;9.018;2023-04-21T05:37:27;98788.63;;;1.81;100.00
21240;BME280;10778;48.962;9.018;2023-04-21T05:39:53;98784.91;;;1.85;100.00
21240;BME280;10778;48.962;9.018;2023-04-21T05:42:19;98788.25;;;1.87;100.00
21240;BME280;10778;48.962;9.018;2023-04-21T05:44:45;98796.22;;;1.84;100.00
21240;BME280;10778;48.962;9.018;2023-04-21T05:47:11;98797.91;;;1.99;100.00
21240;BME280;10778;48.962;9.018;2023-04-21T05:49:37;98801.25;;;2.16;100.00
21240;BME280;10778;48.962;9.018;2023-04-21T05:52:03;98800.03;;;2.22;100.00
21240;BME280;10778;48.962;9.018;2023-04-21T05:54:29;98789.66;;;2.36;100.00
21240;BME280;10778;48.962;9.018;2023-04-21T05:56:55;98785.19;;;2.53;100.00
21240;BME280;10778;48.962;9.018;2023-04-21T05:59:21;98782.28;;;2.72;100.00
21240;BME280;10778;48.962;9.018;2023-04-21T06:01:47;98790.88;;;2.87;100.00
21240;BME280;10778;48.962;9.018;2023-04-21T06:04:13;98799.78;;;2.83;100.00
21240;BME280;10778;48.962;9.018;2023-04-21T06:06:40;98790.09;;;2.72;100.00
21240;BME280;10778;48.962;9.018;2023-04-21T06:09:06;98790.56;;;2.64;100.00
21240;BME280;10778;48.962;9.018;2023-04-21T06:11:32;98791.38;;;2.65;100.00
21240;BME280;10778;48.962;9.018;2023-04-21T06:13:58;98780.09;;;2.66;100.00
21240;BME280;10778;48.962;9.018;2023-04-21T06:16:25;98783.50;;;2.66;100.00
21240;BME280;10778;48.962;9.018;2023-04-21T06:18:52;98789.59;;;2.80;100.00
21240;BME280;10778;48.962;9.018;2023-04-21T06:21:18;98787.19;;;2.77;100.00
21240;BME280;10778;48.962;9.018;2023-04-21T06:23:44;98784.50;;;2.64;100.00
21240;BME280;10778;48.962;9.018;2023-04-21T06:26:10;98778.38;;;2.65;100.00
21240;BME280;10778;48.962;9.018;2023-04-21T06:28:37;98771.41;;;2.80;100.00
21240;BME280;10778;48.962;9.018;2023-04-21T06:31:04;98768.63;;;2.83;100.00
21240;BME280;10778;48.962;9.018;2023-04-21T06:33:30;98767.81;;;3.10;100.00
21240;BME280;10778;48.962;9.018;2023-04-21T06:35:56;98777.78;;;3.16;100.00
21240;BME280;10778;48.962;9.018;2023-04-21T06:38:22;98767.91;;;3.21;100.00
21240;BME280;10778;48.962;9.018;2023-04-21T06:40:49;98774.34;;;3.16;100.00
21240;BME280;10778;48.962;9.018;2023-04-21T06:43:15;98765.28;;;3.49;100.00
21240;BME280;10778;48.962;9.018;2023-04-21T06:45:41;98763.47;;;3.90;100.00
21240;BME280;10778;48.962;9.018;2023-04-21T06:48:08;98766.78;;;3.92;100.00
21240;BME280;10778;48.962;9.018;2023-04-21T06:50:34;98767.94;;;4.13;100.00
21240;BME280;10778;48.962;9.018;2023-04-21T06:53:00;98769.09;;;4.22;100.00
21240;BME280;10778;48.962;9.018;2023-04-21T06:55:26;98761.38;;;4.71;100.00
21240;BME280;10778;48.962;9.018;2023-04-21T06:57:52;98761.94;;;4.63;100.00
21240;BME280;10778;48.962;9.018;2023-04-21T07:00:18;98770.91;;;4.96;100.00
21240;BME280;10778;48.962;9.018;2023-04-21T07:02:44;98766.50;;;4.97;100.00
21240;BME280;10778;48.962;9.018;2023-04-21T07:05:10;98772.66;;;4.96;100.00
21240;BME280;10778;48.962;9.018;2023-04-21T07:07:36;98756.97;;;5.45;100.00
21240;BME280;10778;48.962;9.018;2023-04-21T07:10:03;98757.13;;;6.02;100.00
21240;BME280;10778;48.962;9.018;2023-04-21T07:12:32;98751.16;;;6.57;100.00
21240;BME280;10778;48.962;9.018;2023-04-21T07:14:58;98752.91;;;6.90;100.00
21240;BME280;10778;48.962;9.018;2023-04-21T07:17:24;98751.66;;;6.62;100.00
21240;BME280;10778;48.962;9.018;2023-04-21T07:19:50;98752.00;;;6.68;100.00
21240;BME280;10778;48.962;9.018;2023-04-21T07:22:16;98748.44;;;6.58;100.00
21240;BME280;10778;48.962;9.018;2023-04-21T07:24:42;98739.78;;;6.46;100.00
21240;BME280;10778;48.962;9.018;2023-04-21T07:27:09;98748.34;;;6.14;100.00
21240;BME280;10778;48.962;9.018;2023-04-21T07:29:35;98742.75;;;6.53;100.00
21240;BME280;10778;48.962;9.018;2023-04-21T07:32:02;98736.59;;;7.73;100.00
21240;BME280;10778;48.962;9.018;2023-04-21T07:34:28;98737.22;;;7.65;100.00
21240;BME280;10778;48.962;9.018;2023-04-21T07:36:54;98741.66;;;7.11;100.00
21240;BME280;10778;48.962;9.018;2023-04-21T07:39:20;98738.78;;;6.81;100.00
21240;BME280;10778;48.962;9.018;2023-04-21T07:41:46;98745.00;;;7.02;100.00
21240;BME280;10778;48.962;9.018;2023-04-21T07:44:13;98735.88;;;6.96;100.00
21240;BME280;10778;48.962;9.018;2023-04-21T07:46:39;98730.22;;;7.45;100.00
21240;BME280;10778;48.962;9.018;2023-04-21T07:49:05;98739.25;;;7.40;100.00
21240;BME280;10778;48.962;9.018;2023-04-21T07:51:31;98742.41;;;7.56;99.79
21240;BME280;10778;48.962;9.018;2023-04-21T07:53:57;98730.91;;;8.30;97.09
21240;BME280;10778;48.962;9.018;2023-04-21T07:56:23;98727.66;;;7.33;97.94
21240;BME280;10778;48.962;9.018;2023-04-21T07:58:49;98734.25;;;6.83;100.00
21240;BME280;10778;48.962;9.018;2023-04-21T08:01:15;98725.81;;;7.66;100.00
21240;BME280;10778;48.962;9.018;2023-04-21T08:03:41;98721.72;;;8.05;96.57
21240;BME280;10778;48.962;9.018;2023-04-21T08:06:07;98717.94;;;8.29;97.01
21240;BME280;10778;48.962;9.018;2023-04-21T08:08:34;98703.47;;;8.95;92.83
21240;BME280;10778;48.962;9.018;2023-04-21T08:11:00;98708.25;;;8.50;92.08
21240;BME280;10778;48.962;9.018;2023-04-21T08:13:26;98713.53;;;8.70;93.70
21240;BME280;10778;48.962;9.018;2023-04-21T08:15:53;98706.94;;;8.76;93.88
21240;BME280;10778;48.962;9.018;2023-04-21T08:18:19;98707.47;;;8.79;89.72
21240;BME280;10778;48.962;9.018;2023-04-21T08:20:47;98696.03;;;9.10;93.83
21240;BME280;10778;48.962;9.018;2023-04-21T08:23:13;98706.88;;;9.54;89.53
21240;BME280;10778;48.962;9.018;2023-04-21T08:25:40;98710.38;;;9.35;90.39
21240;BME280;10778;48.962;9.018;2023-04-21T08:28:06;98700.03;;;9.91;85.76
21240;BME280;10778;48.962;9.018;2023-04-21T08:30:32;98697.63;;;10.36;87.06
21240;BME280;10778;48.962;9.018;2023-04-21T08:32:58;98695.28;;;10.05;86.26
21240;BME280;10778;48.962;9.018;2023-04-21T08:35:24;98684.75;;;11.33;82.10
21240;BME280;10778;48.962;9.018;2023-04-21T08:37:50;98690.09;;;11.42;79.16
21240;BME280;10778;48.962;9.018;2023-04-21T08:40:17;98689.47;;;11.48;78.54
21240;BME280;10778;48.962;9.018;2023-04-21T08:42:44;98684.50;;;11.45;79.89
21240;BME280;10778;48.962;9.018;2023-04-21T08:45:11;98675.59;;;11.99;78.40
21240;BME280;10778;48.962;9.018;2023-04-21T08:47:39;98674.88;;;12.91;74.64
21240;BME280;10778;48.962;9.018;2023-04-21T08:50:11;98671.41;;;13.32;72.15
21240;BME280;10778;48.962;9.018;2023-04-21T08:52:38;98666.41;;;13.87;70.11
21240;BME280;10778;48.962;9.018;2023-04-21T08:55:05;98659.34;;;13.79;69.52
21240;BME280;10778;48.962;9.018;2023-04-21T08:57:32;98661.44;;;13.84;70.97
21240;BME280;10778;48.962;9.018;2023-04-21T08:59:59;98664.63;;;13.79;72.14
21240;BME280;10778;48.962;9.018;2023-04-21T09:02:25;98667.75;;;13.74;67.58
21240;BME280;10778;48.962;9.018;2023-04-21T09:04:52;98668.28;;;13.61;69.78
21240;BME280;10778;48.962;9.018;2023-04-21T09:07:32;98664.13;;;14.55;65.96
21240;BME280;10778;48.962;9.018;2023-04-21T09:09:58;98667.31;;;14.02;69.78
21240;BME280;10778;48.962;9.018;2023-04-21T09:12:28;98674.22;;;14.51;65.07
21240;BME280;10778;48.962;9.018;2023-04-21T09:14:54;98670.47;;;14.37;65.70
21240;BME280;10778;48.962;9.018;2023-04-21T09:17:30;98676.41;;;14.48;66.39
21240;BME280;10778;48.962;9.018;2023-04-21T09:20:31;98670.38;;;13.91;66.19
21240;BME280;10778;48.962;9.018;2023-04-21T09:22:56;98669.28;;;14.80;65.74
21240;BME280;10778;48.962;9.018;2023-04-21T09:25:22;98662.94;;;14.58;67.39
21240;BME280;10778;48.962;9.018;2023-04-21T09:27:49;98660.25;;;14.66;65.12
21240;BME280;10778;48.962;9.018;2023-04-21T09:30:18;98655.56;;;14.76;64.31
21240;BME280;10778;48.962;9.018;2023-04-21T09:32:45;98656.84;;;15.04;61.57
21240;BME280;10778;48.962;9.018;2023-04-21T09:35:11;98655.50;;;14.53;64.07
21240;BME280;10778;48.962;9.018;2023-04-21T09:37:38;98649.38;;;14.29;64.60
21240;BME280;10778;48.962;9.018;2023-04-21T09:40:05;98656.25;;;14.07;67.92
21240;BME280;10778;48.962;9.018;2023-04-21T09:42:32;98652.63;;;14.95;63.23
21240;BME280;10778;48.962;9.018;2023-04-21T09:44:59;98651.25;;;15.37;64.11
21240;BME280;10778;48.962;9.018;2023-04-21T09:47:27;98647.13;;;15.58;62.38
21240;BME280;10778;48.962;9.018;2023-04-21T09:49:54;98652.16;;;15.98;62.66
21240;BME280;10778;48.962;9.018;2023-04-21T09:52:21;98650.03;;;15.78;61.97
21240;BME280;10778;48.962;9.018;2023-04-21T09:54:50;98645.91;;;15.60;63.93
21240;BME280;10778;48.962;9.018;2023-04-21T09:57:23;98647.13;;;16.40;60.22
21240;BME280;10778;48.962;9.018;2023-04-21T09:59:53;98642.84;;;16.02;60.34
21240;BME280;10778;48.962;9.018;2023-04-21T10:02:24;98639.56;;;15.31;62.33
21240;BME280;10778;48.962;9.018;2023-04-21T10:04:51;98633.34;;;15.39;61.72
21240;BME280;10778;48.962;9.018;2023-04-21T10:07:18;98634.28;;;16.06;61.57
21240;BME280;10778;48.962;9.018;2023-04-21T10:09:48;98624.53;;;16.66;61.31
21240;BME280;10778;48.962;9.018;2023-04-21T10:12:16;98624.22;;;16.54;60.14
21240;BME280;10778;48.962;9.018;2023-04-21T10:14:42;98624.84;;;16.19;62.05
21240;BME280;10778;48.962;9.018;2023-04-21T10:17:09;98623.47;;;16.23;63.63
21240;BME280;10778;48.962;9.018;2023-04-21T10:19:37;98624.38;;;16.30;61.32
21240;BME280;10778;48.962;9.018;2023-04-21T10:22:12;98616.38;;;16.45;61.01
21240;BME280;10778;48.962;9.018;2023-04-21T10:24:39;98616.69;;;16.57;61.90
21240;BME280;10778;48.962;9.018;2023-04-21T10:27:09;98610.72;;;16.33;62.40
21240;BME280;10778;48.962;9.018;2023-04-21T10:29:36;98609.97;;;16.03;61.97
21240;BME280;10778;48.962;9.018;2023-04-21T10:32:03;98605.44;;;16.77;60.72
21240;BME280;10778;48.962;9.018;2023-04-21T10:34:38;98600.38;;;16.60;60.78
21240;BME280;10778;48.962;9.018;2023-04-21T10:39:36;98588.06;;;16.74;60.47
21240;BME280;10778;48.962;9.018;2023-04-21T10:44:53;98596.47;;;17.00;60.24
21240;BME280;10778;48.962;9.018;2023-04-21T10:47:34;98592.09;;;16.48;59.98
21240;BME280;10778;48.962;9.018;2023-04-21T10:53:07;98583.09;;;16.93;62.27
21240;BME280;10778;48.962;9.018;2023-04-21T10:55:34;98581.56;;;16.84;61.39
21240;BME280;10778;48.962;9.018;2023-04-21T10:58:02;98575.25;;;16.85;60.81
21240;BME280;10778;48.962;9.018;2023-04-21T11:00:29;98583.81;;;16.37;61.46
21240;BME280;10778;48.962;9.018;2023-04-21T11:03:00;98579.81;;;16.47;60.55
21240;BME280;10778;48.962;9.018;2023-04-21T11:05:38;98579.81;;;16.47;62.74
21240;BME280;10778;48.962;9.018;2023-04-21T11:08:13;98568.94;;;16.64;61.38
21240;BME280;10778;48.962;9.018;2023-04-21T11:10:54;98565.31;;;17.15;61.98
21240;BME280;10778;48.962;9.018;2023-04-21T11:13:22;98559.97;;;16.65;61.62
21240;BME280;10778;48.962;9.018;2023-04-21T11:15:58;98557.22;;;17.02;62.37
21240;BME280;10778;48.962;9.018;2023-04-21T11:18:51;98547.16;;;16.97;61.83
21240;BME280;10778;48.962;9.018;2023-04-21T11:21:18;98553.09;;;17.21;62.29
21240;BME280;10778;48.962;9.018;2023-04-21T11:23:48;98551.09;;;17.30;61.36
21240;BME280;10778;48.962;9.018;2023-04-21T11:26:15;98565.28;;;16.87;61.53
21240;BME280;10778;48.962;9.018;2023-04-21T11:28:42;98557.34;;;17.51;61.72
21240;BME280;10778;48.962;9.018;2023-04-21T11:31:08;98561.81;;;17.15;62.66
21240;BME280;10778;48.962;9.018;2023-04-21T11:33:36;98552.75;;;17.73;62.72
21240;BME280;10778;48.962;9.018;2023-04-21T11:36:06;98563.38;;;17.31;63.25
21240;BME280;10778;48.962;9.018;2023-04-21T11:38:40;98562.38;;;17.10;61.30
21240;BME280;10778;48.962;9.018;2023-04-21T11:41:07;98558.00;;;17.24;62.92
21240;BME280;10778;48.962;9.018;2023-04-21T11:43:35;98567.50;;;16.83;62.32
21240;BME280;10778;48.962;9.018;2023-04-21T11:46:24;98554.72;;;17.22;60.64
21240;BME280;10778;48.962;9.018;2023-04-21T11:51:23;98553.75;;;17.37;60.16
21240;BME280;10778;48.962;9.018;2023-04-21T11:53:50;98554.44;;;17.45;59.73
21240;BME280;10778;48.962;9.018;2023-04-21T11:56:17;98545.72;;;17.23;60.34
21240;BME280;10778;48.962;9.018;2023-04-21T11:58:48;98538.34;;;17.60;59.82
21240;BME280;10778;48.962;9.018;2023-04-21T12:01:15;98541.53;;;17.91;59.69
21240;BME280;10778;48.962;9.018;2023-04-21T12:03:52;98536.44;;;17.89;59.15
21240;BME280;10778;48.962;9.018;2023-04-21T12:06:20;98528.19;;;17.77;57.19
21240;BME280;10778;48.962;9.018;2023-04-21T12:08:46;98526.50;;;17.21;58.51
21240;BME280;10778;48.962;9.018;2023-04-21T12:11:15;98529.75;;;17.58;59.52
21240;BME280;10778;48.962;9.018;2023-04-21T12:13:43;98527.09;;;17.58;58.14
21240;BME280;10778;48.962;9.018;2023-04-21T12:16:09;98531.41;;;17.59;58.66
21240;BME280;10778;48.962;9.018;2023-04-21T12:18:35;98523.78;;;17.98;57.78
21240;BME280;10778;48.962;9.018;2023-04-21T12:21:01;98524.03;;;18.10;56.95
21240;BME280;10778;48.962;9.018;2023-04-21T12:23:28;98524.09;;;18.57;56.33
21240;BME280;10778;48.962;9.018;2023-04-21T12:25:54;98511.94;;;18.14;56.70
21240;BME280;10778;48.962;9.018;2023-04-21T12:28:20;98512.78;;;18.15;57.33
21240;BME280;10778;48.962;9.018;2023-04-21T12:30:46;98503.69;;;17.96;57.74
21240;BME280;10778;48.962;9.018;2023-04-21T12:33:12;98501.94;;;18.37;57.96
21240;BME280;10778;48.962;9.018;2023-04-21T12:35:38;98496.81;;;18.42;57.76
21240;BME280;10778;48.962;9.018;2023-04-21T12:38:05;98500.50;;;18.74;56.25
21240;BME280;10778;48.962;9.018;2023-04-21T12:40:31;98489.00;;;19.14;54.03
21240;BME280;10778;48.962;9.018;2023-04-21T12:42:57;98490.00;;;19.20;54.06
21240;BME280;10778;48.962;9.018;2023-04-21T12:45:23;98476.78;;;19.52;53.07
21240;BME280;10778;48.962;9.018;2023-04-21T12:47:49;98481.22;;;19.65;54.41
21240;BME280;10778;48.962;9.018;2023-04-21T12:50:15;98480.78;;;19.68;54.20
21240;BME280;10778;48.962;9.018;2023-04-21T12:52:42;98484.63;;;19.40;54.05
21240;BME280;10778;48.962;9.018;2023-04-21T12:55:08;98474.16;;;19.39;53.35
21240;BME280;10778;48.962;9.018;2023-04-21T12:57:34;98481.63;;;18.96;54.59
21240;BME280;10778;48.962;9.018;2023-04-21T13:00:00;98476.03;;;19.31;53.72
21240;BME280;10778;48.962;9.018;2023-04-21T13:02:26;98469.22;;;19.42;53.07
21240;BME280;10778;48.962;9.018;2023-04-21T13:04:52;98477.84;;;19.38;53.65
21240;BME280;10778;48.962;9.018;2023-04-21T13:07:18;98471.97;;;19.68;53.85
21240;BME280;10778;48.962;9.018;2023-04-21T13:09:47;98471.59;;;20.03;54.25
21240;BME280;10778;48.962;9.018;2023-04-21T13:12:13;98469.34;;;20.07;53.99